Time;durP1;ratioP1;P1;durP2;ratioP2;P2;SDS_P1;SDS_P2;PMS_P1;PMS_P2;Temp;Humidity;BMP_temperature;BMP_pressure;BME280_temperature;BME280_humidity;BME280_pressure;Samples;Min_cycle;Max_cycle;Signal;HPM_P1;HPM_P2
2021/12/06 00:02:03;;;;;;;39.85;24.88;;;2.80;99.90;;;;;;4939168;28;20051;-92
2021/12/06 00:04:36;;;;;;;40.67;25.70;;;2.30;99.90;;;;;;4953947;28;20047;-91
2021/12/06 00:07:06;;;;;;;39.80;25.00;;;1.80;99.90;;;;;;4924530;28;20069;-91
2021/12/06 00:09:32;;;;;;;44.05;26.15;;;1.80;99.90;;;;;;4938186;28;20047;-93
2021/12/06 00:12:01;;;;;;;41.03;24.92;;;1.80;99.90;;;;;;4939691;28;20070;-92
2021/12/06 00:14:30;;;;;;;40.38;25.02;;;2.80;99.90;;;;;;4957769;28;20054;-92
2021/12/06 00:17:01;;;;;;;41.97;26.58;;;2.90;99.90;;;;;;4958650;28;20057;-92
2021/12/06 00:19:28;;;;;;;44.25;26.73;;;2.30;99.90;;;;;;4943224;28;20053;-92
2021/12/06 00:21:56;;;;;;;43.85;26.20;;;1.90;99.90;;;;;;4978112;28;20081;-92
2021/12/06 00:24:22;;;;;;;39.95;26.40;;;1.80;99.90;;;;;;4975928;28;20048;-92
2021/12/06 00:26:53;;;;;;;40.50;26.42;;;1.90;99.90;;;;;;4994005;28;20133;-92
2021/12/06 00:29:19;;;;;;;45.40;27.80;;;1.80;99.90;;;;;;4976894;28;20049;-91
2021/12/06 00:31:46;;;;;;;42.55;27.10;;;1.80;99.90;;;;;;4977134;28;20045;-92
2021/12/06 00:34:15;;;;;;;42.78;27.00;;;1.90;99.90;;;;;;4976086;28;20417;-92
2021/12/06 00:36:52;;;;;;;39.80;26.08;;;1.90;99.90;;;;;;4976792;28;20038;-92
2021/12/06 00:39:19;;;;;;;41.13;27.38;;;2.90;99.90;;;;;;4977135;28;20141;-92
2021/12/06 00:41:44;;;;;;;38.97;25.33;;;1.90;99.90;;;;;;4977426;28;20057;-92
2021/12/06 00:44:10;;;;;;;43.65;26.65;;;2.90;99.90;;;;;;4992595;28;20084;-91
2021/12/06 00:46:37;;;;;;;45.50;26.33;;;2.80;99.90;;;;;;4977279;28;20041;-92
2021/12/06 00:49:04;;;;;;;42.42;26.70;;;1.90;99.90;;;;;;4976018;28;20486;-91
2021/12/06 00:51:30;;;;;;;38.60;25.23;;;1.90;99.90;;;;;;4976340;28;20379;-91
2021/12/06 00:53:56;;;;;;;44.25;26.30;;;3.00;99.90;;;;;;4976685;28;20099;-91
2021/12/06 00:56:22;;;;;;;44.55;27.63;;;1.90;99.90;;;;;;4992457;28;20456;-91
2021/12/06 00:58:47;;;;;;;43.13;27.35;;;1.90;99.90;;;;;;4992776;28;20050;-92
2021/12/06 01:01:14;;;;;;;42.05;26.98;;;2.90;99.90;;;;;;4992557;28;20379;-92
2021/12/06 01:03:42;;;;;;;43.60;26.70;;;1.90;99.90;;;;;;4976247;28;20139;-92
2021/12/06 01:06:09;;;;;;;41.65;27.45;;;1.90;99.90;;;;;;4976126;28;20050;-91
2021/12/06 01:08:35;;;;;;;43.97;26.75;;;1.90;99.90;;;;;;4975223;28;20084;-91
2021/12/06 01:11:01;;;;;;;41.53;26.02;;;1.90;99.90;;;;;;4973619;28;20078;-91
2021/12/06 01:13:28;;;;;;;45.28;27.50;;;1.90;99.90;;;;;;4955500;28;20208;-91
2021/12/06 01:15:54;;;;;;;44.95;28.02;;;1.90;99.90;;;;;;4957423;28;20066;-92
2021/12/06 01:18:21;;;;;;;43.40;26.75;;;1.90;99.90;;;;;;4956277;28;20054;-92
2021/12/06 01:20:54;;;;;;;39.90;25.77;;;1.90;99.90;;;;;;4956717;28;20054;-90
2021/12/06 01:23:25;;;;;;;47.25;27.45;;;1.90;99.90;;;;;;4972487;28;20108;-91
2021/12/06 01:26:10;;;;;;;44.10;27.67;;;1.90;99.90;;;;;;4956280;28;20082;-91
2021/12/06 01:29:05;;;;;;;47.53;27.38;;;1.90;99.90;;;;;;4957227;28;20046;-91
2021/12/06 01:39:13;;;;;;;45.10;27.13;;;2.40;99.90;;;;;;4973050;28;20057;-91
2021/12/06 01:41:52;;;;;;;44.38;26.88;;;2.70;99.90;;;;;;4956873;28;20046;-91
2021/12/06 01:44:20;;;;;;;50.28;29.17;;;1.80;99.90;;;;;;4973529;28;20057;-91
2021/12/06 01:46:53;;;;;;;47.80;28.00;;;1.80;99.90;;;;;;4972488;28;20120;-91
2021/12/06 01:49:21;;;;;;;51.58;28.70;;;1.80;99.90;;;;;;4956501;28;20050;-91
2021/12/06 01:51:48;;;;;;;48.78;28.98;;;1.80;99.90;;;;;;4973229;28;20039;-91
2021/12/06 01:54:16;;;;;;;51.15;29.05;;;1.80;99.90;;;;;;4956797;28;20050;-91
2021/12/06 01:56:42;;;;;;;50.38;28.73;;;1.80;99.90;;;;;;4957110;28;20039;-91
2021/12/06 01:59:09;;;;;;;49.08;27.50;;;1.80;99.90;;;;;;4957265;28;20061;-91
2021/12/06 02:01:35;;;;;;;47.03;27.35;;;2.70;99.90;;;;;;4956230;28;20046;-91
2021/12/06 02:04:02;;;;;;;50.97;28.75;;;1.80;99.90;;;;;;4972448;28;20055;-91
2021/12/06 02:06:27;;;;;;;52.80;30.08;;;1.80;99.90;;;;;;4956537;28;20046;-90
2021/12/06 02:08:54;;;;;;;52.30;29.58;;;2.90;99.90;;;;;;4956671;28;20057;-90
2021/12/06 02:11:23;;;;;;;58.22;30.40;;;3.00;99.90;;;;;;4956882;28;20056;-91
2021/12/06 02:13:59;;;;;;;58.63;31.42;;;1.80;99.90;;;;;;4972833;28;20065;-91
2021/12/06 02:16:35;;;;;;;55.38;30.23;;;1.80;99.90;;;;;;4972046;28;20057;-90
2021/12/06 02:19:04;;;;;;;56.70;30.58;;;1.80;99.90;;;;;;4972759;28;20058;-90
2021/12/06 02:21:33;;;;;;;58.15;30.67;;;3.00;99.90;;;;;;4973016;28;20543;-91
2021/12/06 02:24:02;;;;;;;61.88;32.10;;;1.80;99.90;;;;;;4956178;28;20100;-90
2021/12/06 02:26:28;;;;;;;60.47;31.98;;;1.80;99.90;;;;;;4956698;28;20035;-90
2021/12/06 02:28:54;;;;;;;58.65;30.95;;;1.80;99.90;;;;;;4973081;28;20095;-91
2021/12/06 02:31:24;;;;;;;60.50;32.70;;;1.80;99.90;;;;;;4956141;28;20050;-90
2021/12/06 02:33:50;;;;;;;61.35;32.00;;;1.80;99.90;;;;;;4972975;28;20038;-91
2021/12/06 02:36:17;;;;;;;63.60;33.58;;;1.80;99.90;;;;;;4959269;28;20034;-90
2021/12/06 02:38:43;;;;;;;62.40;32.78;;;1.80;99.90;;;;;;4960046;28;20049;-90
2021/12/06 02:41:09;;;;;;;68.60;34.03;;;2.70;99.90;;;;;;4959803;28;20050;-91
2021/12/06 02:43:37;;;;;;;57.85;32.78;;;1.80;99.90;;;;;;4959136;28;20046;-90
2021/12/06 02:46:04;;;;;;;62.00;31.58;;;2.80;99.90;;;;;;4959911;28;20053;-90
2021/12/06 02:48:29;;;;;;;65.28;33.63;;;1.80;99.90;;;;;;4958854;28;20034;-90
2021/12/06 02:50:57;;;;;;;65.72;32.53;;;1.80;99.90;;;;;;4975840;28;20042;-90
2021/12/06 02:53:25;;;;;;;64.10;33.03;;;1.80;99.90;;;;;;4958155;28;20409;-89
2021/12/06 02:55:54;;;;;;;64.57;33.38;;;1.80;99.90;;;;;;4959872;28;20042;-90
2021/12/06 02:58:45;;;;;;;63.65;32.08;;;1.80;99.90;;;;;;4974910;28;20544;-91
2021/12/06 03:01:15;;;;;;;65.32;32.90;;;1.80;99.90;;;;;;4959546;28;20584;-91
2021/12/06 03:03:41;;;;;;;62.88;31.75;;;1.80;99.90;;;;;;4958619;28;20046;-90
2021/12/06 03:06:09;;;;;;;59.85;32.22;;;1.80;99.90;;;;;;4959151;28;20054;-90
2021/12/06 03:08:45;;;;;;;66.13;32.45;;;1.80;99.90;;;;;;4975155;28;20061;-89
2021/12/06 03:11:17;;;;;;;66.18;33.33;;;1.80;99.90;;;;;;4958975;28;20050;-90
2021/12/06 03:13:43;;;;;;;73.28;34.85;;;1.80;99.90;;;;;;4944275;28;20090;-90
2021/12/06 03:16:09;;;;;;;64.25;32.70;;;1.80;99.90;;;;;;4940379;28;20097;-90
2021/12/06 03:18:35;;;;;;;65.85;33.00;;;2.50;99.90;;;;;;4938583;28;20046;-90
2021/12/06 03:21:02;;;;;;;64.68;33.05;;;1.80;99.90;;;;;;4956107;28;20474;-90
2021/12/06 03:23:28;;;;;;;65.53;31.80;;;2.80;99.90;;;;;;4938796;28;20051;-90
2021/12/06 03:25:54;;;;;;;66.90;32.70;;;1.80;99.90;;;;;;4939850;28;20047;-90
2021/12/06 03:28:20;;;;;;;69.43;33.03;;;2.20;99.90;;;;;;4939879;28;20043;-91
2021/12/06 03:30:46;;;;;;;71.25;33.80;;;1.80;99.90;;;;;;4939493;28;20046;-90
2021/12/06 03:33:12;;;;;;;75.07;34.47;;;1.90;99.90;;;;;;4938767;28;20050;-90
2021/12/06 03:35:37;;;;;;;74.07;33.42;;;2.70;99.90;;;;;;4939365;28;20146;-90
2021/12/06 03:38:03;;;;;;;76.65;33.92;;;1.90;99.90;;;;;;4939930;28;20105;-90
2021/12/06 03:40:29;;;;;;;66.53;32.25;;;1.90;99.90;;;;;;4955471;28;20056;-90
2021/12/06 03:42:55;;;;;;;66.47;32.60;;;1.90;99.90;;;;;;4939586;28;20506;-90
2021/12/06 03:45:21;;;;;;;61.80;32.15;;;1.90;99.90;;;;;;4939084;28;20101;-89
2021/12/06 03:47:47;;;;;;;63.97;32.15;;;1.90;99.90;;;;;;4954758;28;20074;-90
2021/12/06 03:50:13;;;;;;;62.15;30.75;;;1.90;99.90;;;;;;4939049;28;20451;-90
2021/12/06 03:52:39;;;;;;;62.75;32.58;;;1.90;99.90;;;;;;4955672;28;20166;-90
2021/12/06 03:55:06;;;;;;;60.65;31.48;;;1.90;99.90;;;;;;4938546;28;20051;-90
2021/12/06 03:57:32;;;;;;;64.45;32.95;;;2.00;99.90;;;;;;4939603;28;20640;-90
2021/12/06 03:59:58;;;;;;;62.78;32.75;;;2.00;99.90;;;;;;4939488;28;20042;-90
2021/12/06 04:02:29;;;;;;;62.42;31.83;;;2.00;99.90;;;;;;4939155;28;20047;-90
2021/12/06 04:04:56;;;;;;;65.93;32.95;;;2.00;99.90;;;;;;4938538;28;20089;-89
2021/12/06 04:07:23;;;;;;;62.00;32.13;;;2.70;99.90;;;;;;4939297;28;20043;-90
2021/12/06 04:09:49;;;;;;;61.45;32.38;;;2.00;99.90;;;;;;4939020;28;20051;-90
2021/12/06 04:12:15;;;;;;;63.42;31.33;;;2.00;99.90;;;;;;4939534;28;20058;-90
2021/12/06 04:14:42;;;;;;;65.25;32.30;;;2.00;99.90;;;;;;4938381;28;20054;-89
2021/12/06 04:17:09;;;;;;;61.75;31.42;;;2.00;99.90;;;;;;4939044;28;20043;-89
2021/12/06 04:19:35;;;;;;;62.90;31.90;;;2.00;99.90;;;;;;4938342;28;20047;-90
2021/12/06 04:22:02;;;;;;;61.42;32.95;;;2.90;99.90;;;;;;4954298;28;20051;-90
2021/12/06 04:24:29;;;;;;;63.05;32.03;;;2.00;99.90;;;;;;4938214;28;20486;-90
2021/12/06 04:26:55;;;;;;;62.40;33.05;;;2.00;99.90;;;;;;4939041;28;20046;-90
2021/12/06 04:29:21;;;;;;;69.97;32.70;;;2.10;99.90;;;;;;4938176;28;20050;-91
2021/12/06 04:31:50;;;;;;;66.53;31.63;;;2.90;99.90;;;;;;4954747;28;20430;-90
2021/12/06 04:34:17;;;;;;;69.68;34.40;;;2.10;99.90;;;;;;4936729;28;20043;-90
2021/12/06 04:36:43;;;;;;;67.93;33.92;;;2.70;99.90;;;;;;4938000;28;20102;-90
2021/12/06 04:39:13;;;;;;;70.07;33.53;;;2.10;99.90;;;;;;4946051;28;20050;-90
2021/12/06 04:41:39;;;;;;;61.25;32.95;;;2.10;99.90;;;;;;4957962;28;20045;-91
2021/12/06 04:44:05;;;;;;;64.45;31.20;;;2.10;99.90;;;;;;4956856;28;20120;-91
2021/12/06 04:46:47;;;;;;;61.10;32.40;;;2.10;99.90;;;;;;4973625;28;20038;-90
2021/12/06 04:49:14;;;;;;;64.10;30.88;;;2.10;99.90;;;;;;4973281;28;20050;-90
2021/12/06 04:51:43;;;;;;;55.20;29.70;;;3.10;99.90;;;;;;4957300;28;20568;-90
2021/12/06 04:54:10;;;;;;;62.33;31.00;;;2.80;99.90;;;;;;4957050;28;20042;-90
2021/12/06 04:56:46;;;;;;;61.70;29.42;;;2.10;99.90;;;;;;4973188;28;20066;-90
2021/12/06 04:59:19;;;;;;;64.32;30.65;;;2.10;99.90;;;;;;4972948;28;20054;-89
2021/12/06 05:01:51;;;;;;;;;;;2.10;99.90;;;;;;4957664;28;20154;-90
2021/12/06 05:04:23;;;;;;;66.18;32.08;;;2.10;99.90;;;;;;4955581;28;19922;-90
2021/12/06 05:06:56;;;;;;;66.55;31.10;;;2.10;99.90;;;;;;4973450;28;20042;-90
2021/12/06 05:09:26;;;;;;;72.35;32.42;;;2.10;99.90;;;;;;4956832;28;20049;-91
2021/12/06 05:11:53;;;;;;;67.28;30.83;;;2.10;99.90;;;;;;4973143;28;20043;-89
2021/12/06 05:14:19;;;;;;;72.63;32.65;;;2.10;99.90;;;;;;5008721;28;20136;-89
2021/12/06 05:16:45;;;;;;;61.78;31.02;;;3.30;99.90;;;;;;4992759;28;20128;-90
2021/12/06 05:19:11;;;;;;;64.22;31.52;;;2.10;99.90;;;;;;4974744;28;20133;-88
2021/12/06 05:21:40;;;;;;;69.18;34.00;;;2.10;99.90;;;;;;4992519;28;20140;-90
2021/12/06 05:24:07;;;;;;;75.35;34.03;;;2.10;99.90;;;;;;4973201;28;20132;-90
2021/12/06 05:26:33;;;;;;;76.15;33.80;;;2.40;99.90;;;;;;4975674;28;20050;-90
2021/12/06 05:29:01;;;;;;;66.22;31.23;;;2.10;99.90;;;;;;4980576;28;20578;-90
2021/12/06 05:31:28;;;;;;;68.35;31.60;;;2.10;99.90;;;;;;4956885;28;20049;-91
2021/12/06 05:34:00;;;;;;;73.05;33.80;;;2.10;99.90;;;;;;4956125;28;20496;-90
2021/12/06 05:36:26;;;;;;;66.90;31.73;;;2.10;99.90;;;;;;4973111;28;20058;-93
2021/12/06 05:38:54;;;;;;;71.07;32.30;;;2.10;99.90;;;;;;4966613;28;20354;-93
2021/12/06 05:41:20;;;;;;;62.47;30.33;;;2.10;99.90;;;;;;4976080;28;20038;-92
2021/12/06 05:43:46;;;;;;;74.18;32.60;;;2.10;99.90;;;;;;4975415;28;20059;-92
2021/12/06 05:46:13;;;;;;;72.22;32.03;;;2.20;99.90;;;;;;4975097;28;20052;-91
2021/12/06 05:48:38;;;;;;;72.88;31.83;;;2.10;99.90;;;;;;4991758;28;20135;-92
2021/12/06 05:51:04;;;;;;;78.85;33.15;;;2.20;99.90;;;;;;4976563;28;20514;-91
2021/12/06 05:53:31;;;;;;;73.85;32.38;;;2.50;99.90;;;;;;4975150;28;20388;-91
2021/12/06 05:55:57;;;;;;;76.85;32.83;;;2.10;99.90;;;;;;4976540;28;20050;-90
2021/12/06 05:58:34;;;;;;;73.30;32.65;;;2.10;99.90;;;;;;4969639;28;20508;-91
2021/12/06 06:01:01;;;;;;;70.25;31.75;;;3.20;99.90;;;;;;4972674;28;20050;-91
2021/12/06 06:03:27;;;;;;;83.20;35.78;;;2.00;99.90;;;;;;4972527;28;20521;-91
2021/12/06 06:05:53;;;;;;;77.63;34.15;;;3.50;99.90;;;;;;4972991;28;20090;-91
2021/12/06 06:08:28;;;;;;;80.18;34.53;;;2.10;99.90;;;;;;4956023;28;20046;-90
2021/12/06 06:10:54;;;;;;;73.03;34.25;;;2.40;99.90;;;;;;4976981;28;20490;-90
2021/12/06 06:13:20;;;;;;;78.85;34.58;;;2.20;99.90;;;;;;4947095;28;20047;-91
2021/12/06 06:15:47;;;;;;;77.75;34.03;;;2.50;99.90;;;;;;4956768;28;20133;-91
2021/12/06 06:18:21;;;;;;;78.65;33.85;;;2.10;99.90;;;;;;4956564;28;20054;-90
2021/12/06 06:20:51;;;;;;;81.90;32.42;;;2.20;99.90;;;;;;4941202;28;20208;-91
2021/12/06 06:23:17;;;;;;;72.00;32.70;;;3.10;99.90;;;;;;4940748;28;20416;-92
2021/12/06 06:25:43;;;;;;;79.03;33.65;;;2.10;99.90;;;;;;4940882;28;20128;-91
2021/12/06 06:28:09;;;;;;;71.45;32.05;;;2.10;99.90;;;;;;4956491;28;20214;-91
2021/12/06 06:30:36;;;;;;;70.78;32.63;;;3.00;99.90;;;;;;4941064;28;20351;-92
2021/12/06 06:33:02;;;;;;;77.35;33.90;;;2.10;99.90;;;;;;4939827;28;20042;-91
2021/12/06 06:35:28;;;;;;;80.78;33.13;;;2.90;99.90;;;;;;4940127;28;20047;-91
2021/12/06 06:37:54;;;;;;;81.40;34.63;;;1.90;99.90;;;;;;4941349;28;20109;-91
2021/12/06 06:40:20;;;;;;;70.97;31.65;;;2.10;99.90;;;;;;4974269;28;20042;-92
2021/12/06 06:42:46;;;;;;;67.70;29.77;;;1.80;99.90;;;;;;4959587;28;20617;-91
2021/12/06 06:45:20;;;;;;;65.80;30.08;;;2.10;99.90;;;;;;4976057;28;20050;-91
2021/12/06 06:47:47;;;;;;;64.28;27.75;;;3.30;99.90;;;;;;4960042;28;20054;-92
2021/12/06 06:50:15;;;;;;;67.55;28.67;;;2.10;99.90;;;;;;4958368;28;20043;-91
2021/12/06 06:52:41;;;;;;;61.90;28.83;;;2.00;99.90;;;;;;4960223;28;20516;-91
2021/12/06 06:55:09;;;;;;;62.38;29.17;;;2.00;99.90;;;;;;4959950;28;20093;-91
2021/12/06 06:57:39;;;;;;;63.67;28.33;;;3.00;99.90;;;;;;4959114;28;20133;-92
2021/12/06 07:00:11;;;;;;;67.13;29.42;;;2.90;99.90;;;;;;4943857;28;20046;-92
2021/12/06 07:02:37;;;;;;;63.95;29.17;;;2.00;99.90;;;;;;4959207;28;20046;-91
2021/12/06 07:05:03;;;;;;;65.22;29.55;;;2.00;99.90;;;;;;4973842;28;20053;-91
2021/12/06 07:07:29;;;;;;;68.60;29.65;;;2.00;99.90;;;;;;4959088;28;20078;-92
2021/12/06 07:09:55;;;;;;;72.28;29.77;;;2.00;99.90;;;;;;4959128;28;20104;-91
2021/12/06 07:12:27;;;;;;;70.70;30.77;;;2.00;99.90;;;;;;4958597;28;20046;-91
2021/12/06 07:14:53;;;;;;;71.73;31.87;;;2.00;99.90;;;;;;4991400;28;20564;-91
2021/12/06 07:17:19;;;;;;;70.82;30.27;;;2.10;99.90;;;;;;4959013;28;20297;-91
2021/12/06 07:19:45;;;;;;;74.32;30.73;;;2.00;99.90;;;;;;4957930;28;20117;-91
2021/12/06 07:22:11;;;;;;;68.55;31.10;;;2.90;99.90;;;;;;4974305;28;20050;-91
2021/12/06 07:24:38;;;;;;;82.53;33.00;;;2.00;99.90;;;;;;4974725;28;20058;-89
2021/12/06 07:27:05;;;;;;;74.82;31.02;;;2.00;99.90;;;;;;4959207;28;20105;-91
2021/12/06 07:29:33;;;;;;;83.60;34.45;;;1.90;99.90;;;;;;4942188;28;20051;-91
2021/12/06 07:32:00;;;;;;;80.38;33.55;;;3.20;99.90;;;;;;4955800;28;20047;-91
2021/12/06 07:34:26;;;;;;;79.68;33.47;;;2.00;99.90;;;;;;4938839;28;20039;-91
2021/12/06 07:37:02;;;;;;;;;;;;;;;;;;;;;
2021/12/06 07:39:28;;;;;;;85.85;35.20;;;2.00;99.90;;;;;;4955015;28;20062;-91
2021/12/06 07:41:54;;;;;;;89.15;35.25;;;3.50;99.90;;;;;;4939928;28;20047;-92
2021/12/06 07:44:26;;;;;;;83.78;34.67;;;2.10;99.90;;;;;;4939622;28;20050;-92
2021/12/06 07:46:52;;;;;;;87.85;35.67;;;3.30;99.90;;;;;;4938548;28;20106;-91
2021/12/06 07:49:20;;;;;;;86.25;34.90;;;2.00;99.90;;;;;;4939078;28;20142;-91
2021/12/06 07:51:46;;;;;;;79.50;33.88;;;3.20;99.90;;;;;;4955134;28;20137;-90
2021/12/06 07:54:13;;;;;;;90.43;35.15;;;2.40;99.90;;;;;;4937070;28;20246;-89
2021/12/06 07:56:40;;;;;;;82.72;34.33;;;2.00;99.90;;;;;;4939639;28;20113;-91
2021/12/06 07:59:06;;;;;;;86.55;34.58;;;2.90;99.90;;;;;;4956970;28;20138;-93
2021/12/06 08:01:32;;;;;;;85.03;34.90;;;2.00;99.90;;;;;;4938677;28;20565;-90
2021/12/06 08:03:59;;;;;;;88.25;35.72;;;2.00;99.90;;;;;;4938629;28;20050;-90
2021/12/06 08:06:26;;;;;;;88.22;34.45;;;2.00;99.90;;;;;;4939115;28;20101;-92
2021/12/06 08:08:51;;;;;;;86.18;35.17;;;2.70;99.90;;;;;;4953326;28;20046;-90
2021/12/06 08:11:19;;;;;;;100.25;37.90;;;3.40;99.90;;;;;;4957710;28;20054;-90
2021/12/06 08:13:46;;;;;;;93.07;35.47;;;2.90;99.90;;;;;;4970888;28;20121;-90
2021/12/06 08:16:16;;;;;;;81.13;33.67;;;3.10;99.90;;;;;;4957570;28;20042;-90
2021/12/06 08:18:44;;;;;;;83.97;34.35;;;2.10;99.90;;;;;;4957441;28;20137;-96
2021/12/06 08:21:11;;;;;;;92.50;36.78;;;2.10;99.90;;;;;;4973302;28;20108;-91
2021/12/06 08:23:40;;;;;;;88.22;33.97;;;3.20;99.90;;;;;;4957689;28;20077;-91
2021/12/06 08:26:09;;;;;;;96.80;35.80;;;1.60;99.90;;;;;;4958022;28;20038;-91
2021/12/06 08:28:36;;;;;;;88.03;34.78;;;2.60;99.90;;;;;;4956846;28;20525;-91
2021/12/06 08:31:04;;;;;;;90.07;34.88;;;2.10;99.90;;;;;;4957408;28;20047;-90
2021/12/06 08:33:30;;;;;;;92.43;35.83;;;2.10;99.90;;;;;;4956694;28;20042;-91
2021/12/06 08:35:56;;;;;;;90.72;34.10;;;2.10;99.90;;;;;;4972968;28;20572;-90
2021/12/06 08:38:25;;;;;;;96.40;36.38;;;2.00;99.90;;;;;;4957978;28;20039;-90
2021/12/06 08:40:52;;;;;;;94.53;35.13;;;2.50;99.90;;;;;;4957642;28;20046;-92
2021/12/06 08:43:19;;;;;;;87.75;34.28;;;3.20;99.90;;;;;;4956979;28;20292;-92
2021/12/06 08:45:49;;;;;;;88.43;33.58;;;2.80;99.90;;;;;;4973012;28;20058;-93
2021/12/06 08:48:15;;;;;;;85.43;33.17;;;2.20;99.90;;;;;;4953782;28;20061;-93
2021/12/06 08:50:41;;;;;;;84.82;35.90;;;2.20;99.90;;;;;;4954523;28;20047;-92
2021/12/06 08:53:07;;;;;;;84.60;34.67;;;2.20;99.90;;;;;;4954868;28;20491;-91
2021/12/06 08:55:33;;;;;;;88.70;36.83;;;2.20;99.90;;;;;;4955901;28;20563;-92
2021/12/06 08:57:59;;;;;;;82.05;33.88;;;2.20;99.90;;;;;;4970243;28;20042;-91
2021/12/06 09:00:29;;;;;;;91.68;36.50;;;2.20;99.90;;;;;;4971049;28;20042;-93
2021/12/06 09:03:05;;;;;;;;;;;;;;;;;;;;;
2021/12/06 09:05:42;;;;;;;86.25;36.42;;;2.30;99.90;;;;;;4968620;28;20050;-93
2021/12/06 09:08:09;;;;;;;88.25;35.05;;;3.50;99.90;;;;;;4957988;28;20548;-93
2021/12/06 09:10:49;;;;;;;89.07;35.35;;;2.60;99.90;;;;;;4956923;28;20133;-92
2021/12/06 09:13:17;;;;;;;87.15;33.83;;;3.60;99.90;;;;;;4959418;28;20441;-92
2021/12/06 09:15:43;;;;;;;84.70;34.67;;;2.40;99.90;;;;;;4957599;28;20085;-90
2021/12/06 09:18:08;;;;;;;80.43;34.00;;;2.40;99.90;;;;;;4956704;28;20520;-91
2021/12/06 09:20:40;;;;;;;79.63;33.65;;;2.40;99.90;;;;;;4973262;28;20449;-91
2021/12/06 09:23:07;;;;;;;82.20;32.53;;;2.50;99.90;;;;;;4973890;28;20046;-91
2021/12/06 09:25:34;;;;;;;65.20;31.20;;;2.40;99.90;;;;;;4956449;28;20046;-92
2021/12/06 09:28:02;;;;;;;68.18;31.73;;;3.80;99.90;;;;;;4953169;28;20042;-92
2021/12/06 09:30:38;;;;;;;69.47;29.67;;;2.50;99.90;;;;;;4938160;28;20042;-91
2021/12/06 09:33:07;;;;;;;63.35;30.35;;;3.20;99.90;;;;;;4951633;28;20057;-92
2021/12/06 09:35:41;;;;;;;65.85;29.55;;;3.70;99.90;;;;;;4953832;28;20802;-92
2021/12/06 09:38:08;;;;;;;57.22;27.83;;;2.60;99.90;;;;;;4936736;28;20057;-90
2021/12/06 09:40:47;;;;;;;58.80;26.95;;;2.70;99.90;;;;;;4937476;28;20053;-92
2021/12/06 09:43:14;;;;;;;59.22;27.02;;;2.70;99.90;;;;;;4937368;28;20142;-92
2021/12/06 09:45:42;;;;;;;58.30;27.17;;;3.90;99.90;;;;;;4941323;28;20046;-92
2021/12/06 09:48:10;;;;;;;59.60;27.13;;;2.70;99.90;;;;;;4957425;28;20114;-92
2021/12/06 09:50:43;;;;;;;56.60;25.85;;;2.70;99.90;;;;;;4957871;28;20042;-92
2021/12/06 09:53:14;;;;;;;55.53;26.55;;;2.80;99.90;;;;;;4957760;28;20066;-91
2021/12/06 09:55:42;;;;;;;54.97;26.60;;;3.50;99.90;;;;;;4941335;28;20399;-89
2021/12/06 09:58:09;;;;;;;55.72;27.00;;;2.70;99.90;;;;;;4955845;28;20146;-88
2021/12/06 10:00:41;;;;;;;55.63;26.60;;;2.70;99.90;;;;;;4939420;28;20050;-87
2021/12/06 10:03:07;;;;;;;60.22;27.75;;;3.60;99.90;;;;;;4940888;28;20137;-88
2021/12/06 10:05:33;;;;;;;49.75;25.75;;;3.70;99.90;;;;;;4958524;28;20494;-88
2021/12/06 10:07:59;;;;;;;50.40;24.55;;;2.60;99.90;;;;;;4958909;28;20041;-87
2021/12/06 10:10:32;;;;;;;53.33;24.05;;;2.60;99.90;;;;;;4975751;28;20038;-88
2021/12/06 10:12:58;;;;;;;55.22;24.88;;;3.80;99.90;;;;;;4959514;28;20082;-88
2021/12/06 10:15:27;;;;;;;52.70;24.40;;;2.50;99.90;;;;;;4958711;28;20042;-87
2021/12/06 10:17:54;;;;;;;54.05;24.27;;;2.40;99.90;;;;;;4975889;28;20642;-87
2021/12/06 10:20:20;;;;;;;50.20;24.42;;;2.50;99.90;;;;;;4957976;28;20498;-88
2021/12/06 10:22:46;;;;;;;48.80;23.25;;;3.60;99.90;;;;;;4958326;28;20046;-87
2021/12/06 10:25:12;;;;;;;53.53;25.25;;;2.50;99.90;;;;;;4975214;28;20102;-90
2021/12/06 10:27:38;;;;;;;49.05;23.90;;;2.50;99.90;;;;;;4958777;28;20046;-88
2021/12/06 10:30:08;;;;;;;49.47;23.63;;;2.60;99.90;;;;;;4976482;28;20050;-90
2021/12/06 10:32:38;;;;;;;48.70;23.98;;;2.60;99.90;;;;;;4975412;28;20077;-86
2021/12/06 10:35:08;;;;;;;48.53;22.73;;;2.90;99.90;;;;;;4975419;28;20050;-90
2021/12/06 10:37:46;;;;;;;51.13;24.80;;;2.60;99.90;;;;;;4959571;28;20042;-91
2021/12/06 10:40:24;;;;;;;46.22;23.63;;;2.60;99.90;;;;;;4959425;28;20068;-94
2021/12/06 10:42:55;;;;;;;48.08;22.45;;;2.60;99.90;;;;;;4975494;28;20445;-94
2021/12/06 10:45:22;;;;;;;45.38;23.85;;;2.70;99.90;;;;;;4976083;28;20508;-94
2021/12/06 10:48:12;;;;;;;51.20;23.83;;;2.70;99.90;;;;;;4957013;28;20138;-94
2021/12/06 10:50:44;;;;;;;46.63;23.27;;;2.70;99.90;;;;;;4955949;28;20427;-94
2021/12/06 10:53:11;;;;;;;44.92;21.92;;;2.70;99.90;;;;;;4973231;28;20105;-94
2021/12/06 10:55:40;;;;;;;44.22;22.23;;;2.70;99.90;;;;;;4956767;28;20054;-94
2021/12/06 10:58:11;;;;;;;45.45;21.50;;;2.70;99.90;;;;;;4975872;28;20541;-93
2021/12/06 11:00:43;;;;;;;44.30;21.13;;;2.70;99.90;;;;;;4956723;28;20101;-93
2021/12/06 11:03:30;;;;;;;42.05;22.25;;;2.70;99.90;;;;;;4972208;28;20039;-93
2021/12/06 11:06:02;;;;;;;45.25;22.33;;;2.70;99.90;;;;;;4974227;28;20145;-94
2021/12/06 11:08:31;;;;;;;45.53;22.05;;;2.70;99.90;;;;;;4973677;28;20050;-93
2021/12/06 11:11:00;;;;;;;48.17;23.55;;;2.70;99.90;;;;;;4973626;28;20047;-94
2021/12/06 11:13:31;;;;;;;51.20;23.55;;;3.50;99.90;;;;;;4972261;28;20067;-94
2021/12/06 11:16:02;;;;;;;44.95;22.02;;;2.70;99.90;;;;;;4957726;28;20054;-93
2021/12/06 11:18:33;;;;;;;48.20;23.20;;;2.70;99.90;;;;;;4971302;28;20074;-93
2021/12/06 11:21:00;;;;;;;47.28;22.73;;;2.60;99.90;;;;;;4972811;28;20049;-93
2021/12/06 11:23:26;;;;;;;49.30;22.25;;;3.10;99.90;;;;;;4956787;28;20078;-93
2021/12/06 11:26:02;;;;;;;48.10;23.67;;;2.70;99.90;;;;;;4956596;28;20078;-93
2021/12/06 11:28:31;;;;;;;48.47;23.23;;;2.70;99.90;;;;;;4956474;28;20507;-93
2021/12/06 11:31:03;;;;;;;49.13;24.00;;;2.60;99.90;;;;;;4956533;28;20506;-93
2021/12/06 11:33:32;;;;;;;52.85;24.75;;;3.50;99.90;;;;;;4940541;28;20092;-93
2021/12/06 11:36:17;;;;;;;51.28;26.48;;;2.90;99.90;;;;;;4941023;28;20058;-92
2021/12/06 11:38:58;;;;;;;57.30;25.90;;;2.70;99.90;;;;;;4939982;28;20054;-93
2021/12/06 11:41:23;;;;;;;59.30;27.13;;;3.50;99.90;;;;;;4956366;28;20042;-94
2021/12/06 11:43:49;;;;;;;58.03;27.42;;;2.50;99.90;;;;;;4996580;23;20080;-94
2021/12/06 11:46:27;;;;;;;53.55;26.85;;;2.60;99.90;;;;;;4998472;28;20057;-94
2021/12/06 11:48:56;;;;;;;49.00;26.23;;;3.20;99.90;;;;;;4998420;28;20045;-94
2021/12/06 11:51:24;;;;;;;45.00;23.45;;;3.80;99.90;;;;;;4998406;28;20613;-94
2021/12/06 11:53:54;;;;;;;45.08;22.90;;;2.80;99.90;;;;;;5014209;28;20045;-94
2021/12/06 11:56:29;;;;;;;42.88;21.45;;;3.70;99.90;;;;;;4998357;28;20108;-93
2021/12/06 11:58:59;;;;;;;41.97;20.52;;;2.90;99.90;;;;;;4998247;28;20049;-93
2021/12/06 12:01:30;;;;;;;45.90;21.58;;;2.90;99.90;;;;;;4999654;28;20132;-93
2021/12/06 12:04:00;;;;;;;41.60;21.45;;;3.70;99.90;;;;;;4997183;28;20037;-91
2021/12/06 12:06:39;;;;;;;45.67;22.30;;;3.40;99.90;;;;;;4997572;28;20046;-90
2021/12/06 12:09:21;;;;;;;43.13;21.42;;;3.00;99.90;;;;;;5015647;28;20118;-91
2021/12/06 12:12:01;;;;;;;43.50;22.38;;;3.00;99.90;;;;;;5015006;28;20046;-90
2021/12/06 12:14:30;;;;;;;44.50;22.35;;;3.00;99.90;;;;;;4998373;28;20136;-92
2021/12/06 12:16:57;;;;;;;37.67;22.30;;;3.00;99.90;;;;;;4998634;28;20128;-92
2021/12/06 12:19:23;;;;;;;48.92;23.50;;;3.60;99.90;;;;;;4998059;28;20131;-92
2021/12/06 12:21:49;;;;;;;36.90;20.02;;;3.10;99.90;;;;;;4998120;28;20045;-92
2021/12/06 12:24:15;;;;;;;40.35;20.30;;;4.00;99.90;;;;;;5014289;28;20038;-92
2021/12/06 12:26:51;;;;;;;36.85;19.92;;;3.10;99.90;;;;;;4998373;28;20050;-91
2021/12/06 12:29:24;;;;;;;34.38;19.38;;;3.10;99.90;;;;;;4998488;28;20038;-94
2021/12/06 12:31:51;;;;;;;;;;;3.20;99.90;;;;;;4997657;28;20056;-94
2021/12/06 12:34:17;;;;;;;35.88;19.27;;;3.20;99.90;;;;;;5012493;28;19925;-95
2021/12/06 12:36:43;;;;;;;37.72;19.48;;;4.20;99.90;;;;;;4997218;28;20052;-94
2021/12/06 12:39:16;;;;;;;38.38;20.98;;;3.10;99.90;;;;;;4998445;28;20140;-92
2021/12/06 12:41:50;;;;;;;39.88;21.65;;;4.20;99.90;;;;;;5018625;28;20505;-93
2021/12/06 12:44:16;;;;;;;36.67;22.02;;;3.00;99.90;;;;;;5013252;28;20139;-93
2021/12/06 12:46:44;;;;;;;39.38;22.27;;;3.10;99.90;;;;;;5013648;28;20091;-92
2021/12/06 12:49:16;;;;;;;37.95;22.25;;;3.70;99.90;;;;;;4992651;28;20049;-95
2021/12/06 12:51:52;;;;;;;41.20;22.43;;;3.10;99.90;;;;;;4977765;28;20046;-94
2021/12/06 12:54:28;;;;;;;40.83;24.23;;;3.10;99.90;;;;;;4976497;28;20293;-93
2021/12/06 12:57:02;;;;;;;38.65;22.20;;;3.10;99.90;;;;;;4977786;28;20150;-92